sensor_id;sensor_type;location;lat;lon;timestamp;P1;durP1;ratioP1;P2;durP2;ratioP2
34924;SDS011;21130;51.728;8.748;2023-05-07T00:01:32;14.55;;;12.20;;
34924;SDS011;21130;51.728;8.748;2023-05-07T00:03:58;13.60;;;12.20;;
34924;SDS011;21130;51.728;8.748;2023-05-07T00:06:25;16.38;;;12.10;;
34924;SDS011;21130;51.728;8.748;2023-05-07T00:08:54;14.38;;;12.57;;
34924;SDS011;21130;51.728;8.748;2023-05-07T00:11:20;13.48;;;12.07;;
34924;SDS011;21130;51.728;8.748;2023-05-07T00:13:48;14.27;;;12.95;;
34924;SDS011;21130;51.728;8.748;2023-05-07T00:16:14;15.13;;;12.73;;
34924;SDS011;21130;51.728;8.748;2023-05-07T00:18:41;15.77;;;13.57;;
34924;SDS011;21130;51.728;8.748;2023-05-07T00:21:07;15.18;;;13.65;;
34924;SDS011;21130;51.728;8.748;2023-05-07T00:23:34;14.73;;;13.38;;
34924;SDS011;21130;51.728;8.748;2023-05-07T00:26:00;15.07;;;13.68;;
34924;SDS011;21130;51.728;8.748;2023-05-07T00:28:27;16.13;;;14.60;;
34924;SDS011;21130;51.728;8.748;2023-05-07T00:30:54;17.63;;;15.10;;
34924;SDS011;21130;51.728;8.748;2023-05-07T00:33:21;17.50;;;14.55;;
34924;SDS011;21130;51.728;8.748;2023-05-07T00:35:48;16.63;;;14.93;;
34924;SDS011;21130;51.728;8.748;2023-05-07T00:38:14;16.77;;;14.90;;
34924;SDS011;21130;51.728;8.748;2023-05-07T00:40:41;16.65;;;15.02;;
34924;SDS011;21130;51.728;8.748;2023-05-07T00:43:07;17.35;;;15.57;;
34924;SDS011;21130;51.728;8.748;2023-05-07T00:45:35;16.35;;;14.65;;
34924;SDS011;21130;51.728;8.748;2023-05-07T00:48:03;17.98;;;16.17;;
34924;SDS011;21130;51.728;8.748;2023-05-07T00:50:30;17.63;;;15.93;;
34924;SDS011;21130;51.728;8.748;2023-05-07T00:52:58;18.27;;;16.38;;
34924;SDS011;21130;51.728;8.748;2023-05-07T00:55:25;18.65;;;16.75;;
34924;SDS011;21130;51.728;8.748;2023-05-07T00:57:57;19.17;;;17.17;;
34924;SDS011;21130;51.728;8.748;2023-05-07T01:00:23;17.98;;;16.10;;
34924;SDS011;21130;51.728;8.748;2023-05-07T01:02:50;20.60;;;16.50;;
34924;SDS011;21130;51.728;8.748;2023-05-07T01:05:19;18.58;;;16.75;;
34924;SDS011;21130;51.728;8.748;2023-05-07T01:07:49;19.60;;;17.63;;
34924;SDS011;21130;51.728;8.748;2023-05-07T01:10:17;19.83;;;17.83;;
34924;SDS011;21130;51.728;8.748;2023-05-07T01:12:44;20.33;;;18.20;;
34924;SDS011;21130;51.728;8.748;2023-05-07T01:15:13;19.45;;;17.45;;
34924;SDS011;21130;51.728;8.748;2023-05-07T01:17:40;18.77;;;16.90;;
34924;SDS011;21130;51.728;8.748;2023-05-07T01:20:08;21.00;;;18.40;;
34924;SDS011;21130;51.728;8.748;2023-05-07T01:22:37;20.60;;;18.40;;
34924;SDS011;21130;51.728;8.748;2023-05-07T01:25:05;20.15;;;18.00;;
34924;SDS011;21130;51.728;8.748;2023-05-07T01:27:33;21.52;;;19.33;;
34924;SDS011;21130;51.728;8.748;2023-05-07T01:30:00;20.25;;;18.25;;
34924;SDS011;21130;51.728;8.748;2023-05-07T01:32:27;20.98;;;18.88;;
34924;SDS011;21130;51.728;8.748;2023-05-07T01:34:58;21.85;;;18.92;;
34924;SDS011;21130;51.728;8.748;2023-05-07T01:37:28;21.85;;;19.38;;
34924;SDS011;21130;51.728;8.748;2023-05-07T01:39:56;21.42;;;19.30;;
34924;SDS011;21130;51.728;8.748;2023-05-07T01:42:23;22.42;;;20.13;;
34924;SDS011;21130;51.728;8.748;2023-05-07T01:44:50;25.17;;;20.30;;
34924;SDS011;21130;51.728;8.748;2023-05-07T01:47:17;23.30;;;20.23;;
34924;SDS011;21130;51.728;8.748;2023-05-07T01:49:44;22.65;;;19.73;;
34924;SDS011;21130;51.728;8.748;2023-05-07T01:52:10;22.13;;;19.92;;
34924;SDS011;21130;51.728;8.748;2023-05-07T01:54:37;21.70;;;19.40;;
34924;SDS011;21130;51.728;8.748;2023-05-07T01:57:05;22.45;;;20.15;;
34924;SDS011;21130;51.728;8.748;2023-05-07T01:59:32;21.23;;;19.10;;
34924;SDS011;21130;51.728;8.748;2023-05-07T02:01:58;22.77;;;20.45;;
34924;SDS011;21130;51.728;8.748;2023-05-07T02:04:25;21.80;;;19.50;;
34924;SDS011;21130;51.728;8.748;2023-05-07T02:06:52;23.80;;;20.38;;
34924;SDS011;21130;51.728;8.748;2023-05-07T02:09:18;24.45;;;20.75;;
34924;SDS011;21130;51.728;8.748;2023-05-07T02:11:45;22.65;;;19.55;;
34924;SDS011;21130;51.728;8.748;2023-05-07T02:14:12;22.15;;;19.85;;
34924;SDS011;21130;51.728;8.748;2023-05-07T02:16:40;22.45;;;20.10;;
34924;SDS011;21130;51.728;8.748;2023-05-07T02:19:06;21.73;;;19.52;;
34924;SDS011;21130;51.728;8.748;2023-05-07T02:21:33;23.80;;;21.27;;
34924;SDS011;21130;51.728;8.748;2023-05-07T02:23:59;24.33;;;21.77;;
34924;SDS011;21130;51.728;8.748;2023-05-07T02:26:26;23.85;;;21.45;;
34924;SDS011;21130;51.728;8.748;2023-05-07T02:28:52;25.00;;;21.55;;
34924;SDS011;21130;51.728;8.748;2023-05-07T02:31:20;24.08;;;21.52;;
34924;SDS011;21130;51.728;8.748;2023-05-07T02:33:46;23.40;;;20.58;;
34924;SDS011;21130;51.728;8.748;2023-05-07T02:36:13;22.48;;;20.27;;
34924;SDS011;21130;51.728;8.748;2023-05-07T02:38:39;23.05;;;20.60;;
34924;SDS011;21130;51.728;8.748;2023-05-07T02:41:06;23.90;;;21.50;;
34924;SDS011;21130;51.728;8.748;2023-05-07T02:43:33;24.73;;;22.13;;
34924;SDS011;21130;51.728;8.748;2023-05-07T02:46:01;24.40;;;21.70;;
34924;SDS011;21130;51.728;8.748;2023-05-07T02:48:30;23.38;;;21.00;;
34924;SDS011;21130;51.728;8.748;2023-05-07T02:50:56;24.65;;;21.92;;
34924;SDS011;21130;51.728;8.748;2023-05-07T02:53:23;24.33;;;21.50;;
34924;SDS011;21130;51.728;8.748;2023-05-07T02:55:51;24.23;;;21.65;;
34924;SDS011;21130;51.728;8.748;2023-05-07T02:58:19;23.08;;;20.48;;
34924;SDS011;21130;51.728;8.748;2023-05-07T03:00:46;23.90;;;21.27;;
34924;SDS011;21130;51.728;8.748;2023-05-07T03:03:12;24.90;;;21.50;;
34924;SDS011;21130;51.728;8.748;2023-05-07T03:05:40;24.27;;;21.67;;
34924;SDS011;21130;51.728;8.748;2023-05-07T03:08:07;25.17;;;22.50;;
34924;SDS011;21130;51.728;8.748;2023-05-07T03:10:34;26.25;;;22.23;;
34924;SDS011;21130;51.728;8.748;2023-05-07T03:13:01;26.45;;;23.38;;
34924;SDS011;21130;51.728;8.748;2023-05-07T03:15:29;25.00;;;22.38;;
34924;SDS011;21130;51.728;8.748;2023-05-07T03:17:55;26.42;;;23.63;;
34924;SDS011;21130;51.728;8.748;2023-05-07T03:20:22;25.63;;;22.92;;
34924;SDS011;21130;51.728;8.748;2023-05-07T03:22:50;26.33;;;23.52;;
34924;SDS011;21130;51.728;8.748;2023-05-07T03:25:16;25.60;;;22.90;;
34924;SDS011;21130;51.728;8.748;2023-05-07T03:27:42;26.20;;;23.23;;
34924;SDS011;21130;51.728;8.748;2023-05-07T03:30:09;29.55;;;24.65;;
34924;SDS011;21130;51.728;8.748;2023-05-07T03:32:37;27.58;;;24.42;;
34924;SDS011;21130;51.728;8.748;2023-05-07T03:35:04;27.55;;;24.58;;
34924;SDS011;21130;51.728;8.748;2023-05-07T03:37:31;28.98;;;24.77;;
34924;SDS011;21130;51.728;8.748;2023-05-07T03:39:59;28.63;;;25.13;;
34924;SDS011;21130;51.728;8.748;2023-05-07T03:42:25;30.00;;;26.23;;
34924;SDS011;21130;51.728;8.748;2023-05-07T03:44:52;29.48;;;24.92;;
34924;SDS011;21130;51.728;8.748;2023-05-07T03:47:18;33.75;;;27.00;;
34924;SDS011;21130;51.728;8.748;2023-05-07T03:49:45;30.58;;;25.75;;
34924;SDS011;21130;51.728;8.748;2023-05-07T03:52:13;32.03;;;25.10;;
34924;SDS011;21130;51.728;8.748;2023-05-07T03:54:39;31.90;;;27.40;;
34924;SDS011;21130;51.728;8.748;2023-05-07T03:57:08;30.40;;;25.90;;
34924;SDS011;21130;51.728;8.748;2023-05-07T03:59:34;31.63;;;26.52;;
34924;SDS011;21130;51.728;8.748;2023-05-07T04:02:00;31.48;;;26.92;;
34924;SDS011;21130;51.728;8.748;2023-05-07T04:04:27;30.27;;;26.80;;
34924;SDS011;21130;51.728;8.748;2023-05-07T04:06:57;33.45;;;27.20;;
34924;SDS011;21130;51.728;8.748;2023-05-07T04:09:24;30.23;;;26.48;;
34924;SDS011;21130;51.728;8.748;2023-05-07T04:11:50;33.83;;;27.50;;
34924;SDS011;21130;51.728;8.748;2023-05-07T04:14:18;30.52;;;26.42;;
34924;SDS011;21130;51.728;8.748;2023-05-07T04:16:45;32.60;;;27.80;;
34924;SDS011;21130;51.728;8.748;2023-05-07T04:19:11;31.63;;;27.15;;
34924;SDS011;21130;51.728;8.748;2023-05-07T04:21:38;31.73;;;28.27;;
34924;SDS011;21130;51.728;8.748;2023-05-07T04:24:05;32.72;;;27.95;;
34924;SDS011;21130;51.728;8.748;2023-05-07T04:26:32;32.80;;;27.77;;
34924;SDS011;21130;51.728;8.748;2023-05-07T04:28:58;31.50;;;27.05;;
34924;SDS011;21130;51.728;8.748;2023-05-07T04:31:26;33.13;;;27.30;;
34924;SDS011;21130;51.728;8.748;2023-05-07T04:33:53;33.83;;;27.80;;
34924;SDS011;21130;51.728;8.748;2023-05-07T04:36:20;31.92;;;28.15;;
34924;SDS011;21130;51.728;8.748;2023-05-07T04:38:46;32.55;;;27.33;;
34924;SDS011;21130;51.728;8.748;2023-05-07T04:41:13;33.72;;;26.88;;
34924;SDS011;21130;51.728;8.748;2023-05-07T04:43:40;32.83;;;27.10;;
34924;SDS011;21130;51.728;8.748;2023-05-07T04:46:06;31.17;;;27.45;;
34924;SDS011;21130;51.728;8.748;2023-05-07T04:48:34;32.20;;;27.52;;
34924;SDS011;21130;51.728;8.748;2023-05-07T04:51:02;32.67;;;27.83;;
34924;SDS011;21130;51.728;8.748;2023-05-07T04:53:29;32.40;;;27.38;;
34924;SDS011;21130;51.728;8.748;2023-05-07T04:55:56;32.67;;;28.00;;
34924;SDS011;21130;51.728;8.748;2023-05-07T04:58:24;34.38;;;28.10;;
34924;SDS011;21130;51.728;8.748;2023-05-07T05:00:51;31.85;;;27.17;;
34924;SDS011;21130;51.728;8.748;2023-05-07T05:03:17;33.72;;;27.80;;
34924;SDS011;21130;51.728;8.748;2023-05-07T05:05:45;32.20;;;26.58;;
34924;SDS011;21130;51.728;8.748;2023-05-07T05:08:12;30.02;;;26.05;;
34924;SDS011;21130;51.728;8.748;2023-05-07T05:10:38;33.53;;;26.88;;
34924;SDS011;21130;51.728;8.748;2023-05-07T05:13:06;30.30;;;25.92;;
34924;SDS011;21130;51.728;8.748;2023-05-07T05:15:32;31.95;;;26.75;;
34924;SDS011;21130;51.728;8.748;2023-05-07T05:17:59;32.40;;;26.85;;
34924;SDS011;21130;51.728;8.748;2023-05-07T05:20:25;30.52;;;26.55;;
34924;SDS011;21130;51.728;8.748;2023-05-07T05:22:53;30.15;;;25.30;;
34924;SDS011;21130;51.728;8.748;2023-05-07T05:25:20;28.80;;;25.70;;
34924;SDS011;21130;51.728;8.748;2023-05-07T05:27:46;30.02;;;26.60;;
34924;SDS011;21130;51.728;8.748;2023-05-07T05:30:13;29.70;;;25.92;;
34924;SDS011;21130;51.728;8.748;2023-05-07T05:32:40;28.50;;;25.40;;
34924;SDS011;21130;51.728;8.748;2023-05-07T05:35:06;29.98;;;25.27;;
34924;SDS011;21130;51.728;8.748;2023-05-07T05:37:33;28.27;;;24.80;;
34924;SDS011;21130;51.728;8.748;2023-05-07T05:40:01;27.02;;;24.15;;
34924;SDS011;21130;51.728;8.748;2023-05-07T05:42:29;27.48;;;23.90;;
34924;SDS011;21130;51.728;8.748;2023-05-07T05:44:55;29.02;;;24.23;;
34924;SDS011;21130;51.728;8.748;2023-05-07T05:47:22;28.30;;;24.20;;
34924;SDS011;21130;51.728;8.748;2023-05-07T05:49:49;27.20;;;23.02;;
34924;SDS011;21130;51.728;8.748;2023-05-07T05:52:16;28.73;;;23.27;;
34924;SDS011;21130;51.728;8.748;2023-05-07T05:54:42;25.25;;;22.52;;
34924;SDS011;21130;51.728;8.748;2023-05-07T05:57:10;28.40;;;23.60;;
34924;SDS011;21130;51.728;8.748;2023-05-07T05:59:37;26.15;;;23.08;;
34924;SDS011;21130;51.728;8.748;2023-05-07T06:02:04;26.75;;;22.10;;
34924;SDS011;21130;51.728;8.748;2023-05-07T06:04:30;25.38;;;22.63;;
34924;SDS011;21130;51.728;8.748;2023-05-07T06:06:57;24.92;;;22.08;;
34924;SDS011;21130;51.728;8.748;2023-05-07T06:09:23;26.63;;;21.33;;
34924;SDS011;21130;51.728;8.748;2023-05-07T06:11:49;25.08;;;22.42;;
34924;SDS011;21130;51.728;8.748;2023-05-07T06:14:17;23.15;;;20.67;;
34924;SDS011;21130;51.728;8.748;2023-05-07T06:16:44;24.00;;;20.65;;
34924;SDS011;21130;51.728;8.748;2023-05-07T06:19:10;22.17;;;19.80;;
34924;SDS011;21130;51.728;8.748;2023-05-07T06:21:38;24.85;;;21.05;;
34924;SDS011;21130;51.728;8.748;2023-05-07T06:24:05;22.27;;;19.95;;
34924;SDS011;21130;51.728;8.748;2023-05-07T06:26:32;23.15;;;20.70;;
34924;SDS011;21130;51.728;8.748;2023-05-07T06:28:58;21.90;;;19.60;;
34924;SDS011;21130;51.728;8.748;2023-05-07T06:31:28;22.13;;;19.67;;
34924;SDS011;21130;51.728;8.748;2023-05-07T06:33:56;22.73;;;19.35;;
34924;SDS011;21130;51.728;8.748;2023-05-07T06:36:22;21.92;;;19.38;;
34924;SDS011;21130;51.728;8.748;2023-05-07T06:38:49;20.30;;;18.17;;
34924;SDS011;21130;51.728;8.748;2023-05-07T06:41:15;22.50;;;19.33;;
34924;SDS011;21130;51.728;8.748;2023-05-07T06:43:42;21.88;;;19.05;;
34924;SDS011;21130;51.728;8.748;2023-05-07T06:46:08;22.20;;;18.75;;
34924;SDS011;21130;51.728;8.748;2023-05-07T06:48:36;22.88;;;19.15;;
34924;SDS011;21130;51.728;8.748;2023-05-07T06:51:02;19.00;;;16.98;;
34924;SDS011;21130;51.728;8.748;2023-05-07T06:53:29;20.42;;;18.33;;
34924;SDS011;21130;51.728;8.748;2023-05-07T06:55:56;21.35;;;19.05;;
34924;SDS011;21130;51.728;8.748;2023-05-07T06:58:23;19.30;;;17.30;;
34924;SDS011;21130;51.728;8.748;2023-05-07T07:00:49;20.05;;;17.83;;
34924;SDS011;21130;51.728;8.748;2023-05-07T07:03:16;19.35;;;17.33;;
34924;SDS011;21130;51.728;8.748;2023-05-07T07:05:44;18.95;;;16.95;;
34924;SDS011;21130;51.728;8.748;2023-05-07T07:08:10;19.00;;;17.00;;
34924;SDS011;21130;51.728;8.748;2023-05-07T07:10:37;18.88;;;16.90;;
34924;SDS011;21130;51.728;8.748;2023-05-07T07:13:04;19.80;;;16.75;;
34924;SDS011;21130;51.728;8.748;2023-05-07T07:15:30;18.02;;;16.15;;
34924;SDS011;21130;51.728;8.748;2023-05-07T07:17:56;18.15;;;16.25;;
34924;SDS011;21130;51.728;8.748;2023-05-07T07:20:23;17.17;;;15.43;;
34924;SDS011;21130;51.728;8.748;2023-05-07T07:22:51;17.10;;;15.13;;
34924;SDS011;21130;51.728;8.748;2023-05-07T07:25:17;15.80;;;14.30;;
34924;SDS011;21130;51.728;8.748;2023-05-07T07:27:44;15.75;;;14.05;;
34924;SDS011;21130;51.728;8.748;2023-05-07T07:30:11;17.50;;;14.48;;
34924;SDS011;21130;51.728;8.748;2023-05-07T07:32:37;16.88;;;15.07;;
34924;SDS011;21130;51.728;8.748;2023-05-07T07:35:04;15.80;;;14.20;;
34924;SDS011;21130;51.728;8.748;2023-05-07T07:37:32;15.13;;;13.63;;
34924;SDS011;21130;51.728;8.748;2023-05-07T07:39:59;15.02;;;13.52;;
34924;SDS011;21130;51.728;8.748;2023-05-07T07:42:26;15.52;;;13.85;;
34924;SDS011;21130;51.728;8.748;2023-05-07T07:44:54;15.05;;;13.55;;
34924;SDS011;21130;51.728;8.748;2023-05-07T07:47:20;15.70;;;14.10;;
34924;SDS011;21130;51.728;8.748;2023-05-07T07:49:47;15.63;;;14.02;;
34924;SDS011;21130;51.728;8.748;2023-05-07T07:52:13;14.85;;;13.20;;
34924;SDS011;21130;51.728;8.748;2023-05-07T07:54:40;14.70;;;13.15;;
34924;SDS011;21130;51.728;8.748;2023-05-07T07:57:08;14.18;;;12.75;;
34924;SDS011;21130;51.728;8.748;2023-05-07T07:59:35;13.98;;;12.55;;
34924;SDS011;21130;51.728;8.748;2023-05-07T08:02:01;14.00;;;12.60;;
34924;SDS011;21130;51.728;8.748;2023-05-07T08:04:28;13.25;;;11.95;;
34924;SDS011;21130;51.728;8.748;2023-05-07T08:06:55;13.63;;;12.32;;
34924;SDS011;21130;51.728;8.748;2023-05-07T08:09:22;14.40;;;12.90;;
34924;SDS011;21130;51.728;8.748;2023-05-07T08:11:49;13.45;;;12.10;;
34924;SDS011;21130;51.728;8.748;2023-05-07T08:14:17;13.55;;;12.07;;
34924;SDS011;21130;51.728;8.748;2023-05-07T08:16:43;14.23;;;12.75;;
34924;SDS011;21130;51.728;8.748;2023-05-07T08:19:10;13.90;;;11.43;;
34924;SDS011;21130;51.728;8.748;2023-05-07T08:21:38;13.40;;;12.10;;
34924;SDS011;21130;51.728;8.748;2023-05-07T08:24:05;13.23;;;11.82;;
34924;SDS011;21130;51.728;8.748;2023-05-07T08:26:31;12.75;;;11.23;;
34924;SDS011;21130;51.728;8.748;2023-05-07T08:28:58;13.02;;;11.63;;
34924;SDS011;21130;51.728;8.748;2023-05-07T08:31:26;12.55;;;11.25;;
34924;SDS011;21130;51.728;8.748;2023-05-07T08:33:52;13.48;;;12.07;;
34924;SDS011;21130;51.728;8.748;2023-05-07T08:36:19;13.50;;;12.07;;
34924;SDS011;21130;51.728;8.748;2023-05-07T08:38:45;13.75;;;12.32;;
34924;SDS011;21130;51.728;8.748;2023-05-07T08:41:12;13.43;;;12.02;;
34924;SDS011;21130;51.728;8.748;2023-05-07T08:43:38;12.77;;;11.48;;
34924;SDS011;21130;51.728;8.748;2023-05-07T08:46:07;12.88;;;11.57;;
34924;SDS011;21130;51.728;8.748;2023-05-07T08:48:36;12.52;;;11.27;;
34924;SDS011;21130;51.728;8.748;2023-05-07T08:51:05;13.23;;;11.90;;
34924;SDS011;21130;51.728;8.748;2023-05-07T08:53:31;12.85;;;11.40;;
34924;SDS011;21130;51.728;8.748;2023-05-07T08:55:59;12.68;;;11.38;;
34924;SDS011;21130;51.728;8.748;2023-05-07T08:58:25;11.82;;;10.65;;
34924;SDS011;21130;51.728;8.748;2023-05-07T09:00:52;12.65;;;11.35;;
34924;SDS011;21130;51.728;8.748;2023-05-07T09:03:19;12.77;;;11.52;;
34924;SDS011;21130;51.728;8.748;2023-05-07T09:05:47;12.20;;;11.00;;
34924;SDS011;21130;51.728;8.748;2023-05-07T09:08:14;12.88;;;11.57;;
34924;SDS011;21130;51.728;8.748;2023-05-07T09:10:42;12.88;;;11.55;;
34924;SDS011;21130;51.728;8.748;2023-05-07T09:13:08;12.25;;;10.73;;
34924;SDS011;21130;51.728;8.748;2023-05-07T09:15:38;11.93;;;10.68;;
34924;SDS011;21130;51.728;8.748;2023-05-07T09:18:05;12.00;;;10.55;;
34924;SDS011;21130;51.728;8.748;2023-05-07T09:20:31;11.48;;;10.27;;
34924;SDS011;21130;51.728;8.748;2023-05-07T09:22:59;11.52;;;10.43;;
34924;SDS011;21130;51.728;8.748;2023-05-07T09:25:29;11.52;;;10.32;;
34924;SDS011;21130;51.728;8.748;2023-05-07T09:27:56;12.10;;;10.90;;
34924;SDS011;21130;51.728;8.748;2023-05-07T09:30:26;11.82;;;10.63;;
34924;SDS011;21130;51.728;8.748;2023-05-07T09:32:53;11.82;;;10.68;;
34924;SDS011;21130;51.728;8.748;2023-05-07T09:35:20;11.10;;;10.00;;
34924;SDS011;21130;51.728;8.748;2023-05-07T09:37:49;11.40;;;10.27;;
34924;SDS011;21130;51.728;8.748;2023-05-07T09:40:24;11.73;;;9.95;;
34924;SDS011;21130;51.728;8.748;2023-05-07T09:42:51;11.35;;;10.25;;
34924;SDS011;21130;51.728;8.748;2023-05-07T09:45:21;11.40;;;10.30;;
34924;SDS011;21130;51.728;8.748;2023-05-07T09:47:48;11.55;;;10.45;;
34924;SDS011;21130;51.728;8.748;2023-05-07T09:50:19;11.20;;;10.10;;
34924;SDS011;21130;51.728;8.748;2023-05-07T09:52:51;11.57;;;10.48;;
34924;SDS011;21130;51.728;8.748;2023-05-07T09:55:18;13.68;;;12.35;;
34924;SDS011;21130;51.728;8.748;2023-05-07T09:57:48;11.20;;;10.10;;
34924;SDS011;21130;51.728;8.748;2023-05-07T10:00:16;11.32;;;10.23;;
34924;SDS011;21130;51.728;8.748;2023-05-07T10:02:44;11.85;;;10.68;;
34924;SDS011;21130;51.728;8.748;2023-05-07T10:05:16;10.63;;;9.52;;
34924;SDS011;21130;51.728;8.748;2023-05-07T10:07:43;10.68;;;9.68;;
34924;SDS011;21130;51.728;8.748;2023-05-07T10:10:10;11.75;;;10.32;;
34924;SDS011;21130;51.728;8.748;2023-05-07T10:12:37;11.82;;;9.82;;
34924;SDS011;21130;51.728;8.748;2023-05-07T10:15:07;10.65;;;9.65;;
34924;SDS011;21130;51.728;8.748;2023-05-07T10:17:35;10.20;;;9.20;;
34924;SDS011;21130;51.728;8.748;2023-05-07T10:20:03;10.88;;;9.77;;
34924;SDS011;21130;51.728;8.748;2023-05-07T10:22:30;10.15;;;9.15;;
34924;SDS011;21130;51.728;8.748;2023-05-07T10:25:04;12.48;;;11.27;;
34924;SDS011;21130;51.728;8.748;2023-05-07T10:27:36;10.80;;;9.70;;
34924;SDS011;21130;51.728;8.748;2023-05-07T10:30:05;10.55;;;9.52;;
34924;SDS011;21130;51.728;8.748;2023-05-07T10:32:42;9.90;;;9.00;;
34924;SDS011;21130;51.728;8.748;2023-05-07T10:35:13;9.82;;;8.70;;
34924;SDS011;21130;51.728;8.748;2023-05-07T10:37:42;10.73;;;8.65;;
34924;SDS011;21130;51.728;8.748;2023-05-07T10:40:10;9.20;;;8.30;;
34924;SDS011;21130;51.728;8.748;2023-05-07T10:42:37;9.85;;;8.95;;
34924;SDS011;21130;51.728;8.748;2023-05-07T10:45:15;10.13;;;9.13;;
34924;SDS011;21130;51.728;8.748;2023-05-07T10:50:32;10.02;;;9.10;;
34924;SDS011;21130;51.728;8.748;2023-05-07T10:55:51;9.10;;;8.05;;
34924;SDS011;21130;51.728;8.748;2023-05-07T10:58:53;8.35;;;7.57;;
34924;SDS011;21130;51.728;8.748;2023-05-07T11:04:21;10.75;;;8.13;;
34924;SDS011;21130;51.728;8.748;2023-05-07T11:09:54;8.88;;;8.02;;
34924;SDS011;21130;51.728;8.748;2023-05-07T11:15:37;8.45;;;7.35;;
34924;SDS011;21130;51.728;8.748;2023-05-07T11:18:14;8.65;;;7.75;;
34924;SDS011;21130;51.728;8.748;2023-05-07T11:20:49;8.75;;;7.85;;
34924;SDS011;21130;51.728;8.748;2023-05-07T11:26:22;7.88;;;7.18;;
34924;SDS011;21130;51.728;8.748;2023-05-07T11:28:49;7.63;;;6.93;;
34924;SDS011;21130;51.728;8.748;2023-05-07T11:31:17;7.57;;;6.88;;
34924;SDS011;21130;51.728;8.748;2023-05-07T11:33:48;6.90;;;6.20;;
34924;SDS011;21130;51.728;8.748;2023-05-07T11:36:16;6.20;;;5.60;;
34924;SDS011;21130;51.728;8.748;2023-05-07T11:38:42;6.75;;;6.15;;
34924;SDS011;21130;51.728;8.748;2023-05-07T11:41:09;6.97;;;6.38;;
34924;SDS011;21130;51.728;8.748;2023-05-07T11:43:35;6.82;;;6.22;;
34924;SDS011;21130;51.728;8.748;2023-05-07T11:49:10;6.38;;;5.82;;
34924;SDS011;21130;51.728;8.748;2023-05-07T11:51:37;6.18;;;5.57;;
34924;SDS011;21130;51.728;8.748;2023-05-07T11:54:05;5.85;;;5.35;;
34924;SDS011;21130;51.728;8.748;2023-05-07T11:56:33;6.07;;;5.40;;
34924;SDS011;21130;51.728;8.748;2023-05-07T11:59:00;5.57;;;5.18;;
34924;SDS011;21130;51.728;8.748;2023-05-07T12:01:27;5.85;;;5.35;;
34924;SDS011;21130;51.728;8.748;2023-05-07T12:03:53;5.40;;;4.90;;
34924;SDS011;21130;51.728;8.748;2023-05-07T12:06:21;6.05;;;5.47;;
34924;SDS011;21130;51.728;8.748;2023-05-07T12:08:48;5.15;;;4.60;;
34924;SDS011;21130;51.728;8.748;2023-05-07T12:11:15;5.95;;;5.10;;
34924;SDS011;21130;51.728;8.748;2023-05-07T12:13:47;5.15;;;4.75;;
34924;SDS011;21130;51.728;8.748;2023-05-07T12:16:14;5.30;;;4.50;;
34924;SDS011;21130;51.728;8.748;2023-05-07T12:18:41;5.30;;;4.80;;
34924;SDS011;21130;51.728;8.748;2023-05-07T12:21:08;4.50;;;4.10;;
34924;SDS011;21130;51.728;8.748;2023-05-07T12:23:37;5.28;;;4.78;;
34924;SDS011;21130;51.728;8.748;2023-05-07T12:26:04;4.88;;;4.47;;
34924;SDS011;21130;51.728;8.748;2023-05-07T12:28:31;4.70;;;4.30;;
34924;SDS011;21130;51.728;8.748;2023-05-07T12:31:03;4.50;;;4.10;;
34924;SDS011;21130;51.728;8.748;2023-05-07T12:33:30;4.45;;;4.03;;
34924;SDS011;21130;51.728;8.748;2023-05-07T12:35:58;4.97;;;4.53;;
34924;SDS011;21130;51.728;8.748;2023-05-07T12:38:32;4.35;;;4.05;;
34924;SDS011;21130;51.728;8.748;2023-05-07T12:41:03;4.63;;;4.10;;
34924;SDS011;21130;51.728;8.748;2023-05-07T12:43:30;4.95;;;4.55;;
34924;SDS011;21130;51.728;8.748;2023-05-07T12:45:57;4.75;;;4.35;;
34924;SDS011;21130;51.728;8.748;2023-05-07T12:48:26;4.38;;;3.92;;
34924;SDS011;21130;51.728;8.748;2023-05-07T12:50:53;4.97;;;4.50;;
34924;SDS011;21130;51.728;8.748;2023-05-07T12:53:22;4.53;;;4.13;;
34924;SDS011;21130;51.728;8.748;2023-05-07T12:55:50;4.45;;;4.05;;
34924;SDS011;21130;51.728;8.748;2023-05-07T12:58:20;6.00;;;4.63;;
34924;SDS011;21130;51.728;8.748;2023-05-07T13:00:51;4.70;;;4.30;;
34924;SDS011;21130;51.728;8.748;2023-05-07T13:03:20;6.45;;;5.85;;
34924;SDS011;21130;51.728;8.748;2023-05-07T13:05:48;5.65;;;4.05;;
34924;SDS011;21130;51.728;8.748;2023-05-07T13:08:22;6.50;;;4.50;;
34924;SDS011;21130;51.728;8.748;2023-05-07T13:10:50;7.63;;;3.97;;
34924;SDS011;21130;51.728;8.748;2023-05-07T13:13:16;4.93;;;3.58;;
34924;SDS011;21130;51.728;8.748;2023-05-07T13:15:44;4.28;;;3.88;;
34924;SDS011;21130;51.728;8.748;2023-05-07T13:18:11;5.63;;;4.70;;
34924;SDS011;21130;51.728;8.748;2023-05-07T13:20:37;4.75;;;4.40;;
34924;SDS011;21130;51.728;8.748;2023-05-07T13:23:04;4.25;;;3.95;;
34924;SDS011;21130;51.728;8.748;2023-05-07T13:25:30;7.25;;;5.00;;
34924;SDS011;21130;51.728;8.748;2023-05-07T13:27:57;6.40;;;5.18;;
34924;SDS011;21130;51.728;8.748;2023-05-07T13:30:23;5.53;;;5.00;;
34924;SDS011;21130;51.728;8.748;2023-05-07T13:32:53;5.63;;;5.13;;
34924;SDS011;21130;51.728;8.748;2023-05-07T13:35:21;5.60;;;5.05;;
34924;SDS011;21130;51.728;8.748;2023-05-07T13:37:48;6.15;;;5.55;;
34924;SDS011;21130;51.728;8.748;2023-05-07T13:40:14;7.68;;;6.88;;
34924;SDS011;21130;51.728;8.748;2023-05-07T13:42:41;5.93;;;5.40;;
34924;SDS011;21130;51.728;8.748;2023-05-07T13:45:08;8.00;;;7.20;;
34924;SDS011;21130;51.728;8.748;2023-05-07T13:47:35;8.15;;;7.45;;
34924;SDS011;21130;51.728;8.748;2023-05-07T13:50:04;8.20;;;7.40;;
34924;SDS011;21130;51.728;8.748;2023-05-07T13:52:32;8.10;;;7.40;;
34924;SDS011;21130;51.728;8.748;2023-05-07T13:54:59;8.95;;;8.05;;
34924;SDS011;21130;51.728;8.748;2023-05-07T13:57:25;8.10;;;7.40;;
34924;SDS011;21130;51.728;8.748;2023-05-07T13:59:52;8.60;;;7.80;;
34924;SDS011;21130;51.728;8.748;2023-05-07T14:02:18;8.50;;;7.70;;
34924;SDS011;21130;51.728;8.748;2023-05-07T14:04:44;8.73;;;7.93;;
34924;SDS011;21130;51.728;8.748;2023-05-07T14:07:12;8.15;;;7.35;;
34924;SDS011;21130;51.728;8.748;2023-05-07T14:09:39;8.65;;;7.85;;
34924;SDS011;21130;51.728;8.748;2023-05-07T14:12:05;8.93;;;8.15;;
34924;SDS011;21130;51.728;8.748;2023-05-07T14:14:32;9.80;;;8.82;;
34924;SDS011;21130;51.728;8.748;2023-05-07T14:16:59;9.73;;;8.93;;
34924;SDS011;21130;51.728;8.748;2023-05-07T14:19:25;10.50;;;9.50;;
34924;SDS011;21130;51.728;8.748;2023-05-07T14:21:52;11.02;;;9.15;;
34924;SDS011;21130;51.728;8.748;2023-05-07T14:24:20;10.15;;;9.23;;
34924;SDS011;21130;51.728;8.748;2023-05-07T14:26:46;9.35;;;8.55;;
34924;SDS011;21130;51.728;8.748;2023-05-07T14:29:13;10.20;;;9.30;;
34924;SDS011;21130;51.728;8.748;2023-05-07T14:31:40;10.10;;;9.20;;
34924;SDS011;21130;51.728;8.748;2023-05-07T14:34:07;9.18;;;8.32;;
34924;SDS011;21130;51.728;8.748;2023-05-07T14:36:33;10.55;;;9.55;;
34924;SDS011;21130;51.728;8.748;2023-05-07T14:39:00;10.18;;;9.27;;
34924;SDS011;21130;51.728;8.748;2023-05-07T14:41:27;10.20;;;9.10;;
34924;SDS011;21130;51.728;8.748;2023-05-07T14:43:54;11.07;;;9.52;;
34924;SDS011;21130;51.728;8.748;2023-05-07T14:46:21;9.65;;;8.75;;
34924;SDS011;21130;51.728;8.748;2023-05-07T14:48:49;10.25;;;9.10;;
34924;SDS011;21130;51.728;8.748;2023-05-07T15:00:33;11.30;;;10.27;;